Time;durP1;ratioP1;P1;durP2;ratioP2;P2;SDS_P1;SDS_P2;PMS_P1;PMS_P2;Temp;Humidity;BMP_temperature;BMP_pressure;BME280_temperature;BME280_humidity;BME280_pressure;Samples;Min_cycle;Max_cycle;Signal;HPM_P1;HPM_P2
2022/01/17 00:01:49;;;;;;;2.10;1.17;;;4.20;99.90;;;;;;5075262;28;20533;-69
2022/01/17 00:04:18;;;;;;;1.90;0.90;;;4.30;99.90;;;;;;5075913;28;20433;-70
2022/01/17 00:06:45;;;;;;;1.20;0.77;;;4.20;99.90;;;;;;5076318;28;20545;-70
2022/01/17 00:09:12;;;;;;;1.00;0.70;;;4.20;99.90;;;;;;5076968;28;20458;-70
2022/01/17 00:11:42;;;;;;;1.97;1.03;;;4.20;99.90;;;;;;5076062;28;20442;-70
2022/01/17 00:14:13;;;;;;;1.90;0.70;;;4.20;99.90;;;;;;5076496;28;20869;-70
2022/01/17 00:16:44;;;;;;;1.90;0.70;;;4.20;99.90;;;;;;5076337;28;20433;-69
2022/01/17 00:21:57;;;;;;;2.63;0.77;;;4.20;99.90;;;;;;5076037;28;20830;-69
2022/01/17 00:24:24;;;;;;;1.67;0.90;;;4.30;99.90;;;;;;5075254;28;20450;-70
2022/01/17 00:26:52;;;;;;;1.63;0.73;;;4.40;99.90;;;;;;5075355;28;20903;-69
2022/01/17 00:29:19;;;;;;;1.67;0.60;;;4.30;99.90;;;;;;5075996;28;20462;-70
2022/01/17 00:31:46;;;;;;;3.67;1.10;;;4.50;99.90;;;;;;5074951;28;20465;-70
2022/01/17 00:34:13;;;;;;;2.10;0.90;;;4.50;99.90;;;;;;5075389;28;20472;-71
2022/01/17 00:36:40;;;;;;;4.07;1.00;;;4.50;99.90;;;;;;5075792;28;20504;-70
2022/01/17 00:39:08;;;;;;;1.33;0.70;;;4.50;99.90;;;;;;5075902;28;20459;-70
2022/01/17 00:41:35;;;;;;;1.53;0.70;;;4.50;99.90;;;;;;5076310;28;20508;-70
2022/01/17 00:44:03;;;;;;;2.47;1.00;;;4.50;99.90;;;;;;5075877;28;20458;-70
2022/01/17 00:46:30;;;;;;;1.60;0.70;;;4.50;99.90;;;;;;5075864;28;20440;-70
2022/01/17 00:48:57;;;;;;;2.00;0.90;;;4.50;99.90;;;;;;5075938;28;20522;-70
2022/01/17 00:51:24;;;;;;;1.50;0.70;;;4.50;99.90;;;;;;5075961;28;20475;-70
2022/01/17 00:53:52;;;;;;;1.90;0.97;;;4.40;99.90;;;;;;5076298;28;20544;-70
2022/01/17 00:56:22;;;;;;;2.20;0.73;;;4.50;99.90;;;;;;5075717;28;20518;-70
2022/01/17 00:58:49;;;;;;;1.20;0.73;;;4.60;99.90;;;;;;5075170;28;20969;-70
2022/01/17 01:01:17;;;;;;;1.70;0.80;;;4.60;99.90;;;;;;5075521;28;20790;-71
2022/01/17 01:03:44;;;;;;;2.47;0.93;;;4.60;99.90;;;;;;5075919;28;20500;-70
2022/01/17 01:06:11;;;;;;;2.40;0.80;;;4.50;99.90;;;;;;5076107;28;20607;-69
2022/01/17 01:08:38;;;;;;;1.53;0.70;;;4.50;99.90;;;;;;5075719;28;20527;-70
2022/01/17 01:11:05;;;;;;;1.70;0.90;;;4.50;99.90;;;;;;5076199;28;20446;-70
2022/01/17 01:13:33;;;;;;;3.40;1.00;;;4.50;99.90;;;;;;5078939;28;20462;-69
2022/01/17 01:16:22;;;;;;;2.10;1.00;;;4.50;99.90;;;;;;5078108;28;20753;-70
2022/01/17 01:19:27;;;;;;;2.87;1.10;;;4.60;99.90;;;;;;5077640;28;20240;-71
2022/01/17 01:30:18;;;;;;;2.90;1.10;;;4.60;99.90;;;;;;5075373;28;20426;-70
2022/01/17 01:32:50;;;;;;;2.60;1.10;;;4.70;99.90;;;;;;5076017;28;20458;-70
2022/01/17 01:35:19;;;;;;;2.50;1.10;;;4.70;99.90;;;;;;5077596;28;20509;-70
2022/01/17 01:37:47;;;;;;;2.40;1.23;;;4.70;99.90;;;;;;5077774;28;20511;-71
2022/01/17 01:40:16;;;;;;;2.73;0.93;;;4.70;99.90;;;;;;5078473;28;20446;-70
2022/01/17 01:42:43;;;;;;;5.83;1.50;;;4.70;99.90;;;;;;5077858;28;20533;-71
2022/01/17 01:45:12;;;;;;;2.10;1.37;;;4.70;99.90;;;;;;5077364;28;20531;-70
2022/01/17 01:47:41;;;;;;;3.57;1.10;;;4.60;99.90;;;;;;5077354;28;20532;-70
2022/01/17 01:50:11;;;;;;;3.67;1.17;;;4.50;99.90;;;;;;5077487;28;20457;-70
2022/01/17 01:52:41;;;;;;;2.67;1.20;;;4.50;99.90;;;;;;5076836;28;20456;-70
2022/01/17 01:55:09;;;;;;;2.53;1.10;;;4.40;99.90;;;;;;5077414;28;20569;-71
2022/01/17 01:57:37;;;;;;;2.67;1.00;;;4.40;99.90;;;;;;5077533;28;20430;-70
2022/01/17 02:00:06;;;;;;;3.60;1.30;;;4.20;99.90;;;;;;5078436;28;20466;-70
2022/01/17 02:02:33;;;;;;;2.17;1.00;;;4.10;99.90;;;;;;5077663;28;20452;-71
2022/01/17 02:05:02;;;;;;;2.30;1.30;;;4.10;99.90;;;;;;5078315;28;20915;-70
2022/01/17 02:07:29;;;;;;;5.90;1.20;;;4.00;99.90;;;;;;5078579;28;20454;-70
2022/01/17 02:09:56;;;;;;;3.67;2.00;;;4.00;99.90;;;;;;5078626;28;20774;-70
2022/01/17 02:12:23;;;;;;;3.40;1.47;;;3.90;99.90;;;;;;5078257;28;20962;-70
2022/01/17 02:14:52;;;;;;;3.40;1.20;;;4.00;99.90;;;;;;5078524;28;20499;-71
2022/01/17 02:17:20;;;;;;;3.50;1.27;;;4.10;99.90;;;;;;5078830;28;20840;-71
2022/01/17 02:19:52;;;;;;;4.00;1.30;;;4.20;99.90;;;;;;5078926;28;20454;-70
2022/01/17 02:22:19;;;;;;;2.77;1.20;;;4.20;99.90;;;;;;5077940;28;20497;-70
2022/01/17 02:24:46;;;;;;;9.40;2.07;;;4.20;99.90;;;;;;5077442;28;20523;-71
2022/01/17 02:27:13;;;;;;;3.37;1.30;;;4.10;99.90;;;;;;5077202;28;20507;-70
2022/01/17 02:29:40;;;;;;;2.93;1.30;;;4.10;99.90;;;;;;5078244;28;20458;-70
2022/01/17 02:32:07;;;;;;;3.80;1.27;;;3.90;99.90;;;;;;5079442;28;20501;-70
2022/01/17 02:34:40;;;;;;;3.70;1.13;;;3.90;99.90;;;;;;5079610;28;20474;-70
2022/01/17 02:37:09;;;;;;;2.60;1.43;;;3.80;99.90;;;;;;5079996;28;20439;-73
2022/01/17 02:39:36;;;;;;;4.40;1.20;;;3.80;99.90;;;;;;5080116;28;20487;-70
2022/01/17 02:42:04;;;;;;;3.60;0.90;;;3.80;99.90;;;;;;5079085;28;20905;-70
2022/01/17 02:44:31;;;;;;;3.47;1.17;;;3.80;99.90;;;;;;5078710;28;20519;-71
2022/01/17 02:47:00;;;;;;;11.13;1.47;;;3.70;99.90;;;;;;5078416;28;20829;-70
2022/01/17 02:49:27;;;;;;;2.70;1.20;;;3.70;99.90;;;;;;5078717;28;20798;-70
2022/01/17 02:51:54;;;;;;;1.90;1.10;;;3.70;99.90;;;;;;5078532;28;20429;-69
2022/01/17 02:54:22;;;;;;;3.77;1.23;;;3.80;99.90;;;;;;5077700;28;20876;-70
2022/01/17 02:56:49;;;;;;;3.60;1.00;;;3.80;99.90;;;;;;5078158;28;20494;-70
2022/01/17 02:59:16;;;;;;;4.83;1.40;;;3.80;99.90;;;;;;5077973;28;20791;-70
2022/01/17 03:01:43;;;;;;;1.73;1.13;;;3.90;99.90;;;;;;5078114;28;20922;-70
2022/01/17 03:04:10;;;;;;;4.63;1.17;;;3.90;99.90;;;;;;5077965;28;20861;-70
2022/01/17 03:06:37;;;;;;;2.10;1.20;;;3.90;99.90;;;;;;5077773;28;20447;-71
2022/01/17 03:09:04;;;;;;;4.10;1.50;;;3.90;99.90;;;;;;5077627;28;20454;-70
2022/01/17 03:11:33;;;;;;;3.70;1.67;;;3.90;99.90;;;;;;5076706;28;20451;-69
2022/01/17 03:14:00;;;;;;;4.57;1.50;;;3.80;99.90;;;;;;5077348;28;20465;-70
2022/01/17 03:16:32;;;;;;;5.43;1.00;;;3.80;99.90;;;;;;5076440;28;20976;-70
2022/01/17 03:18:59;;;;;;;1.93;0.90;;;3.80;99.90;;;;;;5077556;28;20458;-70
2022/01/17 03:21:28;;;;;;;1.80;1.00;;;3.80;99.90;;;;;;5077729;28;20440;-70
2022/01/17 03:23:55;;;;;;;5.23;1.57;;;3.80;99.90;;;;;;5077258;28;20459;-70
2022/01/17 03:26:22;;;;;;;2.87;1.20;;;3.70;99.90;;;;;;5077371;28;20471;-70
2022/01/17 03:28:51;;;;;;;3.20;1.00;;;3.70;99.90;;;;;;5076740;28;20442;-70
2022/01/17 03:31:18;;;;;;;4.63;1.43;;;3.80;99.90;;;;;;5076941;28;20463;-70
2022/01/17 03:33:45;;;;;;;3.87;1.27;;;3.80;99.90;;;;;;5076397;28;20470;-70
2022/01/17 03:36:12;;;;;;;1.77;0.97;;;3.90;99.90;;;;;;5077213;28;20457;-70
2022/01/17 03:38:40;;;;;;;3.03;1.43;;;3.90;99.90;;;;;;5077067;28;20578;-70
2022/01/17 03:41:08;;;;;;;4.60;1.20;;;3.90;99.90;;;;;;5076863;28;20421;-70
2022/01/17 03:43:36;;;;;;;2.47;1.00;;;3.80;99.90;;;;;;5077020;28;20425;-70
2022/01/17 03:46:04;;;;;;;1.70;0.90;;;3.80;99.90;;;;;;5076925;28;20470;-70
2022/01/17 03:48:32;;;;;;;4.03;1.10;;;3.70;99.90;;;;;;5076732;28;20474;-70
2022/01/17 03:51:00;;;;;;;1.83;1.30;;;3.70;99.90;;;;;;5076350;28;20493;-70
2022/01/17 03:53:27;;;;;;;2.47;1.00;;;3.80;99.90;;;;;;5076485;28;20454;-71
2022/01/17 03:55:56;;;;;;;2.83;1.17;;;3.90;99.90;;;;;;5075885;28;20486;-70
2022/01/17 03:58:25;;;;;;;4.20;1.03;;;4.00;99.90;;;;;;5075855;28;20890;-70
2022/01/17 04:00:54;;;;;;;2.67;0.97;;;4.20;99.90;;;;;;5075345;28;20462;-70
2022/01/17 04:03:23;;;;;;;4.90;1.43;;;4.10;99.90;;;;;;5074984;28;20500;-71
2022/01/17 04:05:50;;;;;;;2.63;1.10;;;4.10;99.90;;;;;;5075454;28;20465;-70
2022/01/17 04:08:17;;;;;;;2.27;1.00;;;4.00;99.90;;;;;;5074967;28;20776;-71
2022/01/17 04:10:44;;;;;;;1.30;0.80;;;3.90;99.90;;;;;;5075285;28;20877;-72
2022/01/17 04:13:12;;;;;;;1.70;1.00;;;3.80;99.90;;;;;;5075337;28;20776;-70
2022/01/17 04:15:39;;;;;;;3.10;1.23;;;3.80;99.90;;;;;;5076699;28;20518;-70
2022/01/17 04:18:08;;;;;;;1.77;1.00;;;3.80;99.90;;;;;;5076799;28;20478;-70
2022/01/17 04:20:37;;;;;;;1.53;0.90;;;3.80;99.90;;;;;;5077033;28;20551;-71
2022/01/17 04:23:06;;;;;;;2.47;1.20;;;3.90;99.90;;;;;;5076309;28;20966;-70
2022/01/17 04:25:36;;;;;;;3.47;1.00;;;3.90;99.90;;;;;;5075582;28;20892;-70
2022/01/17 04:28:05;;;;;;;5.40;1.70;;;3.90;99.90;;;;;;5075480;28;20515;-71
2022/01/17 04:30:32;;;;;;;3.87;1.40;;;4.00;99.90;;;;;;5075704;28;20895;-71
2022/01/17 04:32:59;;;;;;;2.50;1.20;;;4.10;99.90;;;;;;5076351;28;20549;-71
2022/01/17 04:35:28;;;;;;;3.27;1.57;;;4.00;99.90;;;;;;5076515;28;20482;-70
2022/01/17 04:38:00;;;;;;;2.60;1.20;;;4.00;99.90;;;;;;5076557;28;20435;-72
2022/01/17 04:40:33;;;;;;;2.63;0.80;;;3.90;99.90;;;;;;5076222;28;20889;-70
2022/01/17 04:43:02;;;;;;;3.10;1.30;;;3.90;99.90;;;;;;5076293;28;20869;-71
2022/01/17 04:45:29;;;;;;;4.10;1.87;;;3.80;99.90;;;;;;5076337;28;20511;-71
2022/01/17 04:47:56;;;;;;;3.37;1.07;;;3.70;99.90;;;;;;5079998;28;20916;-70
2022/01/17 04:50:25;;;;;;;3.27;1.37;;;3.70;99.90;;;;;;5079759;28;20475;-70
2022/01/17 04:52:54;;;;;;;5.87;1.50;;;3.70;99.90;;;;;;5079816;28;20429;-70
2022/01/17 04:55:25;;;;;;;2.30;0.93;;;3.60;99.90;;;;;;5080176;28;20452;-70
2022/01/17 04:57:51;;;;;;;2.33;1.00;;;3.70;99.90;;;;;;5080310;28;20442;-70
2022/01/17 05:00:21;;;;;;;5.63;1.33;;;3.60;99.90;;;;;;5080128;28;20744;-70
2022/01/17 05:02:49;;;;;;;2.40;1.30;;;3.60;99.90;;;;;;5080315;28;20487;-70
2022/01/17 05:05:17;;;;;;;1.80;1.10;;;3.70;99.90;;;;;;5079902;28;20461;-70
2022/01/17 05:07:44;;;;;;;2.20;1.10;;;3.60;99.90;;;;;;5079394;28;20475;-70
2022/01/17 05:10:13;;;;;;;2.73;0.90;;;3.60;99.90;;;;;;5080053;28;20462;-70
2022/01/17 05:12:42;;;;;;;4.00;1.00;;;3.60;99.90;;;;;;5078320;28;20768;-70
2022/01/17 05:15:21;;;;;;;3.10;1.10;;;3.60;99.90;;;;;;5078254;28;20460;-69
2022/01/17 05:17:59;;;;;;;2.57;1.13;;;3.70;99.90;;;;;;5078241;28;20497;-70
2022/01/17 05:20:26;;;;;;;2.30;1.30;;;3.70;99.90;;;;;;5078555;28;20424;-69
2022/01/17 05:22:53;;;;;;;2.70;0.97;;;3.70;99.90;;;;;;5078191;28;20470;-69
2022/01/17 05:25:20;;;;;;;2.73;1.40;;;3.70;99.90;;;;;;5078418;28;20432;-69
2022/01/17 05:27:49;;;;;;;2.90;1.00;;;3.70;99.90;;;;;;5079587;28;20496;-69
2022/01/17 05:30:18;;;;;;;3.10;1.00;;;3.70;99.90;;;;;;5079333;28;20778;-70
2022/01/17 05:32:46;;;;;;;1.70;0.90;;;3.60;99.90;;;;;;5079459;28;20785;-69
2022/01/17 05:35:14;;;;;;;2.60;1.10;;;3.60;99.90;;;;;;5078801;28;20571;-69
2022/01/17 05:37:41;;;;;;;7.13;1.20;;;3.60;99.90;;;;;;5078164;28;20486;-69
2022/01/17 05:40:10;;;;;;;2.07;1.00;;;3.60;99.90;;;;;;5078370;28;20961;-70
2022/01/17 05:42:37;;;;;;;2.00;1.07;;;3.50;99.90;;;;;;5077839;28;20521;-69
2022/01/17 05:45:08;;;;;;;4.27;1.63;;;3.60;99.90;;;;;;5077307;28;20540;-70
2022/01/17 05:47:36;;;;;;;2.30;1.13;;;3.60;99.90;;;;;;5077945;28;20893;-69
2022/01/17 05:50:04;;;;;;;4.23;1.27;;;3.60;99.90;;;;;;5075087;28;20454;-69
2022/01/17 05:52:32;;;;;;;5.93;1.20;;;3.70;99.90;;;;;;5075391;28;20456;-70
2022/01/17 05:54:59;;;;;;;3.93;0.93;;;3.70;99.90;;;;;;5075068;28;20714;-69
2022/01/17 05:57:27;;;;;;;2.50;1.00;;;3.70;99.90;;;;;;5074597;28;20964;-69
2022/01/17 05:59:54;;;;;;;3.93;1.10;;;3.70;99.90;;;;;;5073993;28;20497;-69
2022/01/17 06:02:22;;;;;;;3.27;1.40;;;3.80;99.90;;;;;;5073579;28;20448;-69
2022/01/17 06:04:49;;;;;;;2.00;0.80;;;3.80;99.90;;;;;;5074309;28;20465;-69
2022/01/17 06:07:16;;;;;;;2.57;0.90;;;3.90;99.90;;;;;;5073965;28;20540;-70
2022/01/17 06:09:44;;;;;;;1.20;0.90;;;3.90;99.90;;;;;;5073940;28;20454;-69
2022/01/17 06:12:12;;;;;;;0.90;0.70;;;4.00;99.90;;;;;;5074685;28;20499;-70
2022/01/17 06:14:39;;;;;;;1.47;0.77;;;4.10;99.90;;;;;;5074100;28;20458;-69
2022/01/17 06:17:07;;;;;;;1.63;0.80;;;4.00;99.90;;;;;;5076434;28;20827;-70
2022/01/17 06:19:38;;;;;;;2.27;1.10;;;4.10;99.90;;;;;;5076589;28;20450;-70
2022/01/17 06:22:07;;;;;;;1.43;0.80;;;4.00;99.90;;;;;;5076337;28;20425;-69
2022/01/17 06:24:44;;;;;;;1.80;0.80;;;4.10;99.90;;;;;;5076582;28;20455;-69
2022/01/17 06:27:11;;;;;;;2.00;0.90;;;4.00;99.90;;;;;;5077504;28;20892;-69
2022/01/17 06:29:38;;;;;;;2.10;0.80;;;4.00;99.90;;;;;;5076712;28;20793;-70
2022/01/17 06:32:09;;;;;;;1.73;0.80;;;4.00;99.90;;;;;;5074164;28;20482;-69
2022/01/17 06:34:37;;;;;;;1.87;0.90;;;4.10;99.90;;;;;;5075598;28;20500;-69
2022/01/17 06:37:05;;;;;;;2.00;0.80;;;4.10;99.90;;;;;;5075241;28;20518;-69
2022/01/17 06:39:33;;;;;;;2.27;1.00;;;4.20;99.90;;;;;;5074056;28;20526;-69
2022/01/17 06:42:00;;;;;;;1.07;0.70;;;4.40;99.90;;;;;;5076129;28;20450;-70
2022/01/17 06:44:27;;;;;;;2.40;0.90;;;4.50;99.90;;;;;;5073402;28;20508;-69
2022/01/17 06:46:54;;;;;;;1.20;0.80;;;4.40;99.90;;;;;;5074017;28;20502;-69
2022/01/17 06:49:24;;;;;;;1.87;0.90;;;4.40;99.90;;;;;;5074012;28;20490;-69
2022/01/17 06:51:52;;;;;;;1.63;0.87;;;4.30;99.90;;;;;;5075328;28;20500;-69
2022/01/17 06:54:19;;;;;;;2.40;0.70;;;4.30;99.90;;;;;;5073840;28;20460;-70
2022/01/17 06:56:54;;;;;;;1.60;1.00;;;4.30;99.90;;;;;;5075474;28;20479;-70
2022/01/17 06:59:21;;;;;;;1.63;0.80;;;4.30;99.90;;;;;;5076514;28;20428;-70
2022/01/17 07:01:48;;;;;;;1.60;0.70;;;4.30;99.90;;;;;;5076129;28;20513;-70
2022/01/17 07:04:15;;;;;;;2.43;0.77;;;4.30;99.90;;;;;;5074937;28;20451;-70
2022/01/17 07:06:42;;;;;;;2.17;0.80;;;4.20;99.90;;;;;;5076686;28;20906;-70
2022/01/17 07:09:14;;;;;;;2.20;0.70;;;4.20;99.90;;;;;;5075729;28;20474;-70
2022/01/17 07:11:41;;;;;;;1.10;0.73;;;4.20;99.90;;;;;;5075187;28;20432;-71
2022/01/17 07:14:09;;;;;;;2.70;0.73;;;4.20;99.90;;;;;;5074141;28;20938;-70
2022/01/17 07:16:37;;;;;;;1.97;0.80;;;4.50;99.90;;;;;;5074556;28;20485;-71
2022/01/17 07:19:09;;;;;;;1.00;0.70;;;4.70;99.90;;;;;;5070210;28;20452;-71
2022/01/17 07:21:37;;;;;;;1.07;0.73;;;4.80;99.90;;;;;;5072966;28;20446;-71
2022/01/17 07:24:05;;;;;;;1.83;0.80;;;5.00;99.90;;;;;;5074877;28;20461;-69
2022/01/17 07:26:34;;;;;;;2.80;0.80;;;4.90;99.90;;;;;;5074404;28;20814;-70
2022/01/17 07:29:02;;;;;;;2.33;1.10;;;4.90;99.90;;;;;;5074695;28;20450;-70
2022/01/17 07:31:29;;;;;;;3.60;0.80;;;5.00;99.90;;;;;;5073964;28;20451;-70
2022/01/17 07:33:56;;;;;;;2.93;0.97;;;4.80;99.90;;;;;;5075219;28;20454;-72
2022/01/17 07:36:23;;;;;;;1.83;0.80;;;4.70;99.90;;;;;;5075014;28;20986;-69
2022/01/17 07:38:50;;;;;;;1.43;0.70;;;4.70;99.90;;;;;;5074360;28;20486;-69
2022/01/17 07:41:17;;;;;;;1.27;0.73;;;4.60;99.90;;;;;;5075039;28;20537;-69
2022/01/17 07:43:47;;;;;;;2.17;0.90;;;4.60;99.90;;;;;;5073281;28;20482;-69
2022/01/17 07:46:23;;;;;;;1.00;0.70;;;4.60;99.90;;;;;;5074123;28;21060;-69
2022/01/17 07:49:09;;;;;;;1.80;0.70;;;4.60;99.90;;;;;;5074342;28;20458;-69
2022/01/17 07:51:37;;;;;;;1.00;0.63;;;4.60;99.90;;;;;;5074276;28;20421;-68
2022/01/17 07:54:05;;;;;;;1.23;0.70;;;4.60;99.90;;;;;;5075380;28;20575;-69
2022/01/17 07:56:33;;;;;;;1.23;0.70;;;4.60;99.90;;;;;;5073760;28;20523;-68
2022/01/17 07:59:03;;;;;;;1.10;0.70;;;4.60;99.90;;;;;;5074096;28;20463;-68
2022/01/17 08:01:31;;;;;;;1.20;0.80;;;4.50;99.90;;;;;;5073625;28;20478;-68
2022/01/17 08:03:58;;;;;;;2.30;0.70;;;4.60;99.90;;;;;;5074026;28;20461;-68
2022/01/17 08:06:27;;;;;;;1.40;0.50;;;4.60;99.90;;;;;;5074947;28;20453;-68
2022/01/17 08:08:55;;;;;;;2.93;0.67;;;4.70;99.90;;;;;;5073899;28;20790;-69
2022/01/17 08:11:22;;;;;;;1.10;0.77;;;4.70;99.90;;;;;;5073244;28;20458;-68
2022/01/17 08:13:55;;;;;;;1.50;0.60;;;4.90;99.90;;;;;;5071715;28;20442;-68
2022/01/17 08:16:25;;;;;;;1.10;0.70;;;5.00;99.90;;;;;;5073025;28;20478;-68
2022/01/17 08:18:53;;;;;;;1.57;0.80;;;4.90;99.90;;;;;;5072889;28;20847;-70
2022/01/17 08:21:23;;;;;;;1.60;0.70;;;5.00;99.90;;;;;;5071904;28;20485;-69
2022/01/17 08:23:50;;;;;;;2.03;0.80;;;5.20;99.90;;;;;;5066149;28;20766;-70
2022/01/17 08:26:23;;;;;;;1.10;0.60;;;5.10;99.90;;;;;;5058596;28;20493;-72
2022/01/17 08:28:50;;;;;;;1.47;0.70;;;5.10;99.90;;;;;;5075871;28;20446;-69
2022/01/17 08:31:17;;;;;;;2.00;0.83;;;5.20;99.90;;;;;;5072864;28;20796;-69
2022/01/17 08:33:45;;;;;;;3.67;0.73;;;5.10;99.90;;;;;;5074606;28;20520;-70
2022/01/17 08:36:13;;;;;;;1.37;0.90;;;5.20;99.90;;;;;;5075151;28;20880;-71
2022/01/17 08:38:41;;;;;;;1.60;0.70;;;5.10;99.90;;;;;;5074709;28;20518;-70
2022/01/17 08:41:09;;;;;;;1.90;0.70;;;5.00;99.90;;;;;;5073681;28;20489;-70
2022/01/17 08:43:36;;;;;;;1.50;0.70;;;5.00;99.90;;;;;;5075032;28;20472;-70
2022/01/17 08:46:06;;;;;;;1.27;0.77;;;5.00;99.90;;;;;;5073521;28;20450;-69
2022/01/17 08:48:33;;;;;;;1.60;0.50;;;5.00;99.90;;;;;;5073380;28;20500;-68
2022/01/17 08:51:01;;;;;;;2.00;0.67;;;5.00;99.90;;;;;;5052570;28;20422;-68
2022/01/17 08:53:28;;;;;;;2.27;0.60;;;5.00;99.90;;;;;;5072437;28;20474;-67
2022/01/17 08:55:58;;;;;;;1.23;0.70;;;5.00;99.90;;;;;;5069256;28;20432;-69
2022/01/17 08:58:25;;;;;;;2.97;0.90;;;5.00;99.90;;;;;;5062640;28;20472;-69
2022/01/17 09:00:53;;;;;;;1.33;0.60;;;4.90;99.90;;;;;;5071273;28;20453;-68
2022/01/17 09:03:25;;;;;;;1.80;0.50;;;4.90;99.90;;;;;;5071619;28;20453;-68
2022/01/17 09:05:55;;;;;;;1.33;0.60;;;5.00;99.90;;;;;;5053595;28;20886;-68
2022/01/17 09:08:24;;;;;;;1.30;0.60;;;5.30;99.90;;;;;;5071545;28;20413;-68
2022/01/17 09:10:55;;;;;;;1.10;0.57;;;5.60;99.90;;;;;;5072185;28;20520;-68
2022/01/17 09:13:23;;;;;;;1.17;0.70;;;5.80;99.90;;;;;;5071757;28;20485;-68
2022/01/17 09:15:52;;;;;;;1.00;0.50;;;5.80;99.90;;;;;;5072440;28;20465;-68
2022/01/17 09:18:20;;;;;;;1.00;0.63;;;6.00;99.90;;;;;;5072716;28;20480;-68
2022/01/17 09:20:49;;;;;;;1.90;0.67;;;5.90;99.90;;;;;;5074091;28;20549;-68
2022/01/17 09:23:28;;;;;;;1.80;0.77;;;5.90;99.90;;;;;;5074565;28;20479;-68
2022/01/17 09:25:55;;;;;;;1.20;0.80;;;5.90;99.90;;;;;;5073156;28;20493;-68
2022/01/17 09:28:23;;;;;;;1.70;0.70;;;5.90;99.90;;;;;;5072868;28;20506;-68
2022/01/17 09:30:50;;;;;;;2.80;1.20;;;5.80;99.90;;;;;;5073742;28;20458;-69
2022/01/17 09:33:18;;;;;;;2.67;1.07;;;6.10;99.90;;;;;;5057498;28;20447;-69
2022/01/17 09:35:45;;;;;;;0.80;0.50;;;6.30;99.90;;;;;;5077194;28;20474;-69
2022/01/17 09:38:12;;;;;;;1.10;0.57;;;6.20;99.90;;;;;;5076873;28;20612;-69
2022/01/17 09:40:40;;;;;;;1.00;0.50;;;6.40;99.90;;;;;;5077708;28;20474;-69
2022/01/17 09:43:09;;;;;;;0.60;0.40;;;6.40;99.90;;;;;;5071586;28;20840;-68
2022/01/17 09:45:36;;;;;;;0.67;0.40;;;6.50;99.90;;;;;;5070917;28;20462;-69
2022/01/17 09:48:06;;;;;;;1.70;0.50;;;6.50;99.90;;;;;;5073006;28;20497;-69
2022/01/17 09:50:44;;;;;;;0.67;0.40;;;6.70;99.90;;;;;;5062960;28;20880;-68
2022/01/17 09:53:19;;;;;;;0.60;0.40;;;6.70;99.90;;;;;;5058268;28;20463;-68
2022/01/17 09:55:47;;;;;;;0.80;0.40;;;6.70;99.90;;;;;;5066297;28;20461;-68
2022/01/17 09:58:15;;;;;;;0.60;0.30;;;6.60;99.90;;;;;;5063294;28;20514;-68
2022/01/17 10:00:44;;;;;;;0.77;0.40;;;6.60;99.90;;;;;;5073823;28;20448;-68
2022/01/17 10:03:17;;;;;;;0.60;0.30;;;6.80;99.90;;;;;;5062214;28;20447;-68
2022/01/17 10:05:50;;;;;;;0.93;0.47;;;6.70;99.90;;;;;;5067902;28;20443;-69
2022/01/17 10:08:20;;;;;;;0.53;0.40;;;6.70;99.90;;;;;;5071393;28;20454;-69
2022/01/17 10:10:57;;;;;;;0.60;0.37;;;6.70;99.90;;;;;;5076109;28;20450;-69
2022/01/17 10:13:26;;;;;;;0.50;0.20;;;6.70;99.90;;;;;;5044284;28;20460;-69
2022/01/17 10:16:05;;;;;;;0.90;0.30;;;6.90;99.90;;;;;;5068952;28;20505;-69
2022/01/17 10:18:38;;;;;;;0.73;0.43;;;7.20;99.90;;;;;;5075864;28;20932;-70
2022/01/17 10:21:10;;;;;;;0.60;0.30;;;7.50;99.90;;;;;;5075072;28;20904;-68
2022/01/17 10:24:00;;;;;;;0.90;0.40;;;7.50;99.90;;;;;;5073164;28;20193;-69
2022/01/17 10:29:39;;;;;;;0.87;0.30;;;7.20;99.90;;;;;;5058712;28;20474;-67
2022/01/17 10:34:56;;;;;;;3.13;0.40;;;7.50;99.90;;;;;;5062242;28;20784;-70
2022/01/17 10:37:24;;;;;;;0.67;0.30;;;7.70;99.90;;;;;;5056904;28;20455;-71
2022/01/17 10:39:57;;;;;;;4.87;2.43;;;7.80;99.90;;;;;;5075878;28;20478;-70
2022/01/17 10:42:27;;;;;;;0.60;0.33;;;7.80;99.90;;;;;;5074012;28;20443;-70
2022/01/17 10:44:55;;;;;;;1.43;0.50;;;7.60;99.90;;;;;;5072223;28;20504;-70
2022/01/17 10:47:25;;;;;;;0.60;0.30;;;7.70;99.90;;;;;;5072611;28;20475;-67
2022/01/17 10:50:07;;;;;;;0.83;0.40;;;7.50;99.90;;;;;;5072823;28;20454;-69
2022/01/17 10:52:37;;;;;;;0.50;0.30;;;7.70;99.90;;;;;;5073023;28;20909;-70
2022/01/17 10:55:12;;;;;;;0.50;0.30;;;7.50;99.90;;;;;;5054958;28;20449;-69
2022/01/17 10:57:45;;;;;;;2.33;0.40;;;7.30;99.90;;;;;;5074139;28;20504;-69
2022/01/17 11:00:16;;;;;;;0.60;0.30;;;7.30;99.90;;;;;;5075426;28;20446;-70
2022/01/17 11:02:46;;;;;;;0.30;0.20;;;7.20;99.90;;;;;;5075966;28;20461;-69
2022/01/17 11:05:17;;;;;;;0.50;0.30;;;7.20;99.90;;;;;;5076066;28;20498;-69
2022/01/17 11:07:46;;;;;;;0.70;0.30;;;7.50;99.90;;;;;;5075691;28;20983;-68
2022/01/17 11:10:25;;;;;;;0.70;0.40;;;7.60;99.90;;;;;;5075863;28;20908;-69
2022/01/17 11:12:57;;;;;;;0.80;0.40;;;7.40;99.90;;;;;;5076360;28;20512;-69
2022/01/17 11:15:26;;;;;;;0.70;0.50;;;7.40;99.90;;;;;;5075297;28;20541;-68
2022/01/17 11:17:56;;;;;;;0.50;0.30;;;7.50;99.90;;;;;;5076236;28;20522;-68
2022/01/17 11:20:32;;;;;;;0.67;0.37;;;7.60;99.90;;;;;;5063467;28;20870;-68
2022/01/17 11:23:16;;;;;;;0.50;0.30;;;7.40;99.90;;;;;;5063702;28;20537;-68
2022/01/17 11:25:52;;;;;;;5.70;0.30;;;7.30;99.90;;;;;;5068329;28;20450;-69
2022/01/17 11:28:27;;;;;;;0.77;0.40;;;7.20;99.90;;;;;;5058857;28;20454;-68
2022/01/17 11:31:00;;;;;;;0.50;0.30;;;7.10;99.90;;;;;;5074816;28;20456;-68
2022/01/17 11:33:29;;;;;;;1.40;0.60;;;7.20;99.90;;;;;;5074930;28;20561;-68
2022/01/17 11:35:57;;;;;;;0.90;0.70;;;7.40;99.90;;;;;;5072916;28;20474;-69
2022/01/17 11:38:32;;;;;;;1.30;0.60;;;7.50;99.90;;;;;;5072386;28;20571;-70
2022/01/17 11:41:06;;;;;;;1.30;0.70;;;7.30;99.90;;;;;;5074329;28;20454;-68
2022/01/17 11:43:37;;;;;;;1.27;0.80;;;7.20;99.90;;;;;;5073969;28;20484;-69
2022/01/17 11:46:26;;;;;;;0.80;0.60;;;7.00;99.90;;;;;;5074173;28;20457;-67
2022/01/17 11:48:58;;;;;;;2.17;0.73;;;6.90;99.90;;;;;;5075325;28;20443;-69
2022/01/17 11:51:50;;;;;;;2.60;1.00;;;6.70;99.90;;;;;;5075132;28;20560;-68
2022/01/17 11:54:20;;;;;;;1.17;0.80;;;6.60;99.90;;;;;;5070441;28;20823;-68
2022/01/17 11:56:53;;;;;;;0.97;0.50;;;6.70;99.90;;;;;;5073829;28;20481;-70
2022/01/17 11:59:41;;;;;;;1.13;0.73;;;7.10;99.90;;;;;;5074838;28;20528;-69
2022/01/17 12:02:30;;;;;;;1.00;0.60;;;7.40;99.90;;;;;;5073459;28;20462;-68
2022/01/17 12:05:35;;;;;;;1.10;0.40;;;7.20;99.90;;;;;;5072409;28;20489;-68
2022/01/17 12:08:09;;;;;;;0.80;0.40;;;6.90;99.90;;;;;;5054736;28;20474;-67
2022/01/17 12:10:44;;;;;;;0.60;0.40;;;7.00;99.90;;;;;;5073063;28;20434;-68
2022/01/17 12:13:39;;;;;;;0.90;0.50;;;7.10;99.90;;;;;;5073809;28;20485;-68
2022/01/17 12:16:37;;;;;;;1.00;0.40;;;6.80;99.90;;;;;;5054006;28;20453;-69
2022/01/17 12:19:08;;;;;;;0.60;0.40;;;6.70;99.90;;;;;;5064106;28;20572;-68
2022/01/17 12:21:40;;;;;;;0.83;0.50;;;7.00;99.90;;;;;;5072741;28;20453;-68
2022/01/17 12:24:46;;;;;;;0.97;0.50;;;6.80;99.90;;;;;;5074275;28;20555;-69
2022/01/17 12:27:24;;;;;;;0.80;0.50;;;6.60;99.90;;;;;;5055439;28;20462;-68
2022/01/17 12:29:58;;;;;;;0.60;0.37;;;6.50;99.90;;;;;;5074405;28;20569;-68
2022/01/17 12:32:53;;;;;;;0.90;0.40;;;6.60;99.90;;;;;;5085180;28;20868;-69
2022/01/17 12:36:00;;;;;;;0.87;0.43;;;6.70;99.90;;;;;;5092584;28;20449;-69
2022/01/17 12:38:31;;;;;;;0.67;0.43;;;6.90;99.90;;;;;;5089315;28;20493;-69
2022/01/17 12:40:59;;;;;;;1.27;0.57;;;6.90;99.90;;;;;;5085075;28;20453;-69
2022/01/17 12:43:31;;;;;;;0.80;0.60;;;6.80;99.90;;;;;;5093636;28;20450;-69
2022/01/17 12:46:05;;;;;;;0.60;0.37;;;6.80;99.90;;;;;;5092702;28;20560;-69
2022/01/17 12:48:37;;;;;;;1.00;0.60;;;6.80;99.90;;;;;;5093403;28;20441;-69
2022/01/17 12:51:08;;;;;;;0.70;0.40;;;7.10;99.90;;;;;;5095060;28;20770;-69
2022/01/17 12:53:36;;;;;;;0.93;0.50;;;7.40;99.90;;;;;;5094171;28;20452;-69
2022/01/17 12:56:05;;;;;;;0.90;0.60;;;7.30;99.90;;;;;;5093725;28;20881;-69
2022/01/17 12:58:34;;;;;;;0.70;0.40;;;7.50;99.90;;;;;;5094672;28;20542;-68
2022/01/17 13:01:04;;;;;;;0.70;0.40;;;7.70;99.90;;;;;;5092513;28;20481;-68
2022/01/17 13:03:37;;;;;;;1.00;0.60;;;7.70;99.90;;;;;;5092485;28;20462;-69
2022/01/17 13:06:07;;;;;;;2.07;0.50;;;7.50;99.90;;;;;;5092002;28;20489;-68
2022/01/17 13:08:34;;;;;;;0.90;0.50;;;7.30;99.90;;;;;;5096996;28;20495;-69
2022/01/17 13:11:14;;;;;;;0.93;0.40;;;7.10;99.90;;;;;;5096871;28;20485;-69
2022/01/17 13:13:48;;;;;;;0.90;0.60;;;7.10;99.90;;;;;;5095342;28;20977;-68
2022/01/17 13:16:16;;;;;;;1.57;0.60;;;6.90;99.90;;;;;;5097534;28;20452;-69
2022/01/17 13:18:45;;;;;;;0.83;0.40;;;6.80;99.90;;;;;;5098887;28;20477;-69
2022/01/17 13:21:21;;;;;;;0.70;0.40;;;6.80;99.90;;;;;;5099001;28;20449;-69
2022/01/17 13:23:53;;;;;;;1.00;0.40;;;7.00;99.90;;;;;;5098678;28;20457;-68
2022/01/17 13:26:26;;;;;;;0.67;0.37;;;6.90;99.90;;;;;;5097880;28;20450;-68
2022/01/17 13:28:55;;;;;;;1.00;0.40;;;6.70;99.90;;;;;;5097271;28;20912;-68
2022/01/17 13:31:24;;;;;;;0.80;0.40;;;6.90;99.90;;;;;;5096636;28;21068;-69